• Join FlightAware (Why Join?)
  • Login
  • US Flag 
07:11AM EDT


 

Airport Tracker/Info


-or-


 

Live Flight TrackerFlight Track Log ✈ SWA1103 ✈ 25-Apr-2013 ✈ KMDW - KPDX

Flight Track Log - Related Links

Times and Time Zones

All times are in EDT time to prevent confusion due to time zone crossing. See the SWA1103 flight status page for this flight to view local times or setup timezone preferences in your user account.

Time Position Orientation Groundspeed Altitude Reporting Facility
EDT Latitude Longitude Course Direction KTS MPH feet Rate Location/Type
08:39PM 41.7961 -87.8292 276° West 196 226 3,600  Level Chicago Center
08:40PM 41.7750 -87.9014 249° West 207 238 4,000 180 Climbing Chicago Center
08:41PM 41.7733 -87.9922 269° West 231 266 4,000 420 Level Chicago Center
08:42PM 41.7700 -88.0844 267° West 244 281 4,900 900 Climbing Chicago Center
08:43PM 41.7656 -88.1761 266° West 248 285 5,900 1,200 Climbing Chicago Center
08:44PM 41.8459 -88.4464 276° West  Level FlightAware Approximate
08:44PM 41.7861 -88.2847 284° West 252 290 7,500  Level Chicago Center
08:45PM 41.7978 -88.3772 280° West 272 313 11,100 3,060 Climbing Chicago Center
08:46PM 41.8253 -88.4653 293° West 277 319 13,900 2,760 Climbing Chicago Center
08:47PM 41.8697 -88.5575 303° West 293 337 16,900 2,340 Climbing Chicago Center
08:48PM 41.9267 -88.6733 303° West 311 358 18,800 2,100 Climbing Chicago Center
08:49PM 41.9647 -88.7967 293° West 352 405 21,300 2,100 Climbing Chicago Center
08:50PM 42.0014 -88.9225 291° West 365 420 23,200 1,980 Climbing Chicago Center
08:51PM 42.0397 -89.0478 292° West 366 421 25,500 2,100 Climbing Chicago Center
08:52PM 42.0675 -89.1800 286° West 376 433 27,600 1,920 Climbing Chicago Center
08:53PM 42.0794 -89.3500 275° West 389 448 29,500 1,740 Climbing Chicago Center
08:54PM 42.0883 -89.4939 275° West 389 448 31,200 1,740 Climbing Chicago Center
08:55PM 42.0997 -89.6386 276° West 390 449 33,100 1,800 Climbing Chicago Center
08:56PM 42.1075 -89.7783 274° West 379 436 35,000 1,380 Climbing Chicago Center
08:58PM 42.1167 -89.9258 275° West 363 418 36,000 480 Climbing Chicago Center
08:59PM 42.1328 -90.0578 279° West 361 415 36,000  Level Chicago Center
09:00PM 42.1514 -90.1894 281° West 360 414 36,000  Level Chicago Center
09:01PM 42.1681 -90.3206 280° West 359 413 36,000  Level Chicago Center
09:02PM 42.1861 -90.4522 281° West 360 414 36,000  Level Chicago Center
09:03PM 42.2058 -90.6131 279° West 363 418 36,000  Level Chicago Center
09:04PM 42.2231 -90.7469 280° West 364 419 36,000  Level Chicago Center
09:05PM 42.2397 -90.8808 280° West 365 420 36,000  Level Chicago Center
09:06PM 42.2558 -91.0178 279° West 369 425 36,000  Level Chicago Center
09:07PM 42.2719 -91.1528 279° West 367 422 36,000  Level Chicago Center
09:08PM 42.2925 -91.3150 280° West 366 421 36,000  Level Chicago Center
09:09PM 42.3086 -91.4503 279° West 367 422 36,000  Level Chicago Center
09:10PM 42.3247 -91.5867 279° West 367 422 36,000  Level Chicago Center
09:11PM 42.3403 -91.7225 279° West 366 421 36,000  Level Chicago Center
09:12PM 42.3561 -91.8561 279° West 363 418 36,000  Level Chicago Center
09:13PM 42.3717 -91.9919 279° West 365 420 36,000 720 Level Chicago Center
09:14PM 42.3897 -92.1517 279° West 361 415 37,500 1,080 Climbing Chicago Center
09:15PM 42.3958 -92.2058 279° West 360 414 37,800 300 Climbing Minneapolis Center
09:16PM 42.4136 -92.3686 278° West 363 418 38,000 60 Climbing Minneapolis Center
09:17PM 42.4292 -92.5028 279° West 363 418 38,000  Level Minneapolis Center
09:18PM 42.4433 -92.6372 278° West 364 419 38,000  Level Minneapolis Center
09:19PM 42.4581 -92.7742 278° West 367 422 38,000  Level Minneapolis Center
09:20PM 42.4761 -92.9372 279° West 368 423 38,000  Level Minneapolis Center
09:21PM 42.4894 -93.0742 278° West 370 426 38,000  Level Minneapolis Center
09:22PM 42.5036 -93.2069 278° West 362 417 38,000  Level Minneapolis Center
09:23PM 42.5256 -93.3392 283° West 363 418 38,000  Level Minneapolis Center
09:24PM 42.5592 -93.4669 290° West 361 415 38,000  Level Minneapolis Center
09:25PM 42.5964 -93.6217 288° West 361 415 38,000  Level Minneapolis Center
09:26PM 42.6281 -93.7497 289° West 361 415 38,000  Level Minneapolis Center
09:27PM 42.6594 -93.8808 288° West 365 420 38,000  Level Minneapolis Center
09:28PM 42.6850 -93.9858 288° West 368 423 38,000  Level Minneapolis Center
09:29PM 42.7261 -94.1422 290° West 368 423 38,000  Level Minneapolis Center
09:30PM 42.7611 -94.3000 287° West 368 423 38,000  Level Minneapolis Center
09:31PM 42.7867 -94.4058 288° West 370 426 38,000  Level Minneapolis Center
09:32PM 42.8233 -94.5639 288° West 368 423 38,000  Level Minneapolis Center
09:33PM 42.8581 -94.7067 288° West 364 419 38,000  Level Minneapolis Center
09:34PM 42.8883 -94.8392 287° West 367 422 38,000  Level Minneapolis Center
09:35PM 42.9142 -94.9450 288° West 368 423 38,000  Level Minneapolis Center
09:36PM 42.9494 -95.1044 287° West 368 423 38,000  Level Minneapolis Center
09:37PM 42.9803 -95.2372 288° West 368 423 38,000  Level Minneapolis Center
09:38PM 43.0108 -95.3692 288° West 365 420 38,000  Level Minneapolis Center
09:39PM 43.0464 -95.5297 287° West 367 422 38,000  Level Minneapolis Center
09:41PM 43.0769 -95.6639 287° West 370 426 38,000  Level Minneapolis Center
09:42PM 43.1064 -95.7992 287° West 372 428 38,000  Level Minneapolis Center
09:43PM 43.1367 -95.9339 287° West 370 426 38,000  Level Minneapolis Center
09:44PM 43.1672 -96.0711 287° West 375 432 38,000  Level Minneapolis Center
09:45PM 43.1975 -96.2078 287° West 375 432 38,000  Level Minneapolis Center
09:46PM 43.2339 -96.3753 287° West 380 437 38,000  Level Minneapolis Center
09:47PM 43.2636 -96.5119 287° West 377 434 38,000  Level Minneapolis Center
09:48PM 43.2922 -96.6472 286° West 373 429 38,000  Level Minneapolis Center
09:49PM 43.3214 -96.7864 286° West 375 432 38,000  Level Minneapolis Center
09:50PM 43.3444 -96.8950 286° West 373 429 38,000  Level Minneapolis Center
09:51PM 43.3783 -97.0578 286° West 370 426 38,000  Level Minneapolis Center
09:52PM 43.4075 -97.1961 286° West 373 429 38,000  Level Minneapolis Center
09:53PM 43.4364 -97.3361 286° West 377 434 38,000  Level Minneapolis Center
09:54PM 43.4711 -97.5014 286° West 377 434 38,000  Level Minneapolis Center
09:55PM 43.4986 -97.6397 285° West 375 432 38,000  Level Minneapolis Center
09:56PM 43.5272 -97.7794 286° West 377 434 38,000  Level Minneapolis Center
09:57PM 43.5558 -97.9175 286° West 375 432 38,000  Level Minneapolis Center
09:58PM 43.5828 -98.0569 285° West 376 433 38,000  Level Minneapolis Center
09:59PM 43.6106 -98.1961 285° West 377 434 38,000  Level Minneapolis Center
10:00PM 43.6372 -98.3350 285° West 377 434 38,000  Level Minneapolis Center
10:01PM 43.6656 -98.4758 286° West 378 435 38,000  Level Minneapolis Center
10:02PM 43.6981 -98.6436 285° West 378 435 38,000  Level Minneapolis Center
10:03PM 43.7264 -98.7875 285° West 378 435 38,000  Level Minneapolis Center
10:04PM 43.7519 -98.9275 284° West 376 433 38,000  Level Minneapolis Center
10:05PM 43.7800 -99.0694 285° West 379 436 38,000  Level Minneapolis Center
10:06PM 43.8067 -99.2100 285° West 379 436 38,000  Level Minneapolis Center
10:07PM 43.8325 -99.3508 284° West 377 434 38,000  Level Minneapolis Center
10:08PM 43.8578 -99.4903 284° West 375 432 38,000  Level Minneapolis Center
10:09PM 43.8847 -99.6303 285° West 375 432 38,000  Level Minneapolis Center
10:10PM 43.9097 -99.7725 284° West 377 434 38,000  Level Minneapolis Center
10:11PM 43.9356 -99.9144 284° West 378 435 38,000  Level Minneapolis Center
10:12PM 43.9672 -100.0869 284° West 383 441 38,000  Level Minneapolis Center
10:14PM 43.9928 -100.2311 284° West 383 441 38,000  Level Minneapolis Center
10:15PM 44.0233 -100.4028 284° West 382 440 38,000  Level Minneapolis Center
10:16PM 44.0481 -100.5461 284° West 381 438 38,000  Level Minneapolis Center
10:17PM 44.0739 -100.6906 284° West 382 440 38,000  Level Minneapolis Center
10:18PM 44.0983 -100.8350 283° West 384 442 38,000  Level Minneapolis Center
10:19PM 44.1225 -100.9803 283° West 384 442 38,000  Level Minneapolis Center
10:20PM 44.1522 -101.1539 283° West 384 442 38,000  Level Minneapolis Center
10:21PM 44.1772 -101.2981 284° West 383 441 38,000  Level Minneapolis Center
10:22PM 44.2003 -101.4422 283° West 383 441 38,000  Level Minneapolis Center
10:23PM 44.2242 -101.5856 283° West 381 438 38,000  Level Minneapolis Center
10:24PM 44.2414 -101.6997 282° West 381 438 38,000  Level Denver Center
10:25PM 44.2661 -101.8475 283° West 386 444 38,000  Level Denver Center
10:26PM 44.2942 -102.0233 283° West 387 445 38,000  Level Denver Center
10:27PM 44.3183 -102.1711 283° West 389 448 38,000  Level Denver Center
10:28PM 44.3417 -102.3192 282° West 390 449 38,000  Level Denver Center
10:29PM 44.3656 -102.4692 283° West 394 453 38,000  Level Denver Center
10:30PM 44.3908 -102.6222 283° West 399 459 38,000  Level Denver Center
10:31PM 44.4122 -102.7722 281° West 397 457 38,000  Level Denver Center
10:32PM 44.4361 -102.9261 282° West 401 461 38,000  Level Denver Center
10:33PM 44.4586 -103.0808 282° West 404 465 38,000  Level Denver Center
10:34PM 44.4878 -103.2669 282° West 408 470 38,000  Level Denver Center
10:35PM 44.5106 -103.4250 281° West 413 475 38,000  Level Denver Center
10:36PM 44.5339 -103.5769 282° West 408 470 38,000  Level Denver Center
10:37PM 44.5556 -103.7256 282° West 408 470 38,000  Level Denver Center
10:38PM 44.5803 -103.8981 281° West 406 467 38,000  Level Denver Center
10:39PM 44.6003 -104.0458 281° West 404 465 38,000  Level Denver Center
10:40PM 44.6258 -104.2200 282° West 409 471 38,000  Level Denver Center
10:41PM 44.6472 -104.3692 281° West 408 470 38,000  Level Denver Center
10:42PM 44.6575 -104.4419 281° West 406 467 38,000  Level Salt Lake Center
10:42PM 44.6700 -104.5433 280° West 407 468 38,000  Level Denver Center
10:44PM 44.6931 -104.7175 281° West 408 470 38,000  Level Denver Center
10:45PM 44.7172 -104.8928 281° West 409 471 38,000  Level Denver Center
10:46PM 44.7367 -105.0422 280° West 407 468 38,000  Level Denver Center
10:47PM 44.7586 -105.2067 281° West 407 468 38,000  Level Denver Center
10:48PM 44.7781 -105.3572 280° West 407 468 38,000  Level Denver Center
10:49PM 44.8006 -105.5317 280° West 406 467 38,000  Level Denver Center
10:50PM 44.8192 -105.6811 280° West 405 466 38,000  Level Denver Center
10:51PM 44.8411 -105.8547 280° West 404 465 38,000  Level Denver Center
10:51PM 44.8478 -105.9033 281° West 403 464 38,000  Level Salt Lake Center
10:52PM 44.8664 -106.0511 280° West 401 461 38,000  Level Salt Lake Center
10:53PM 44.8864 -106.2247 279° West 401 461 38,000  Level Salt Lake Center
10:54PM 44.9050 -106.3728 280° West 401 461 38,000  Level Salt Lake Center
10:55PM 44.9233 -106.5231 280° West 405 466 38,000  Level Salt Lake Center
10:56PM 44.9431 -106.7003 279° West 408 470 38,000  Level Salt Lake Center
10:57PM 44.9614 -106.8517 280° West 409 471 38,000  Level Salt Lake Center
10:58PM 44.9811 -107.0306 279° West 412 474 38,000  Level Salt Lake Center
10:59PM 44.9983 -107.1847 279° West 414 476 38,000  Level Salt Lake Center
11:00PM 45.0181 -107.3642 279° West 415 478 38,000  Level Salt Lake Center
11:01PM 45.0358 -107.5206 279° West 420 483 38,000  Level Salt Lake Center
11:02PM 45.0533 -107.6753 279° West 420 483 38,000  Level Salt Lake Center
11:03PM 45.0739 -107.8572 279° West 423 487 38,000  Level Salt Lake Center
11:04PM 45.0883 -108.0128 278° West 422 486 38,000  Level Salt Lake Center
11:05PM 45.1081 -108.1961 279° West 425 489 38,000  Level Salt Lake Center
11:06PM 45.1233 -108.3522 278° West 422 486 38,000  Level Salt Lake Center
11:07PM 45.1417 -108.5350 278° West 421 484 38,000  Level Salt Lake Center
11:08PM 45.1583 -108.6928 279° West 423 487 38,000  Level Salt Lake Center
11:09PM 45.1758 -108.8781 278° West 427 491 38,000  Level Salt Lake Center
11:11PM 45.1911 -109.0386 278° West 430 495 38,000  Level Salt Lake Center
11:12PM 45.2072 -109.1997 278° West 432 497 38,000  Level Salt Lake Center
11:13PM 45.2239 -109.3881 277° West 431 496 38,000  Level Salt Lake Center
11:14PM 45.2397 -109.5519 278° West 437 503 38,000  Level Salt Lake Center
11:15PM 45.2567 -109.7406 277° West 433 498 38,000  Level Salt Lake Center
11:16PM 45.2711 -109.9033 277° West 434 499 38,000  Level Salt Lake Center
11:17PM 45.2842 -110.0664 277° West 434 499 38,000  Level Salt Lake Center
11:18PM 45.2994 -110.2536 277° West 428 493 38,000 -540 Level Salt Lake Center
11:19PM 45.3136 -110.4167 277° West 433 498 37,000 -960 Descending Salt Lake Center
11:20PM 45.3275 -110.5886 277° West 428 493 36,100 -540 Descending Salt Lake Center
11:21PM 45.3408 -110.7528 277° West 418 481 36,000 -60 Descending Salt Lake Center
11:22PM 45.3539 -110.9183 276° West 418 481 36,000  Level Salt Lake Center
11:23PM 45.3661 -111.0800 276° West 410 472 36,000  Level Salt Lake Center
11:24PM 45.3794 -111.2461 277° West 418 481 36,000  Level Salt Lake Center
11:25PM 45.3911 -111.4097 276° West 413 475 36,000  Level Salt Lake Center
11:26PM 45.4053 -111.6114 276° West 422 486 36,000  Level Salt Lake Center
11:27PM 45.4175 -111.7789 276° West 423 487 36,000  Level Salt Lake Center
11:28PM 45.4292 -111.9456 276° West 421 484 36,000  Level Salt Lake Center
11:29PM 45.4400 -112.1094 275° West 418 481 36,000  Level Salt Lake Center
11:30PM 45.4514 -112.2725 276° West 415 478 36,000  Level Salt Lake Center
11:31PM 45.4625 -112.4344 276° West 410 472 36,000  Level Salt Lake Center
11:32PM 45.4725 -112.5967 275° West 411 473 36,000  Level Salt Lake Center
11:33PM 45.4828 -112.7622 275° West 417 480 36,000  Level Salt Lake Center
11:34PM 45.4931 -112.9275 275° West 418 481 36,000  Level Salt Lake Center
11:35PM 45.5028 -113.0900 275° West 414 476 36,000  Level Salt Lake Center
11:36PM 45.5125 -113.2536 275° West 414 476 36,000  Level Salt Lake Center
11:37PM 45.5231 -113.4511 274° West 416 479 36,000  Level Salt Lake Center
11:38PM 45.5333 -113.6147 275° West 417 480 36,000  Level Salt Lake Center
11:39PM 45.5408 -113.7836 274° West 416 479 36,000  Level Salt Lake Center
11:40PM 45.5503 -113.9431 275° West 422 486 36,000  Level Salt Lake Center
11:41PM 45.5592 -114.1003 275° West 416 479 36,000  Level Salt Lake Center
11:42PM 45.5675 -114.2808 274° West 410 472 36,000 -240 Level Salt Lake Center
11:43PM 45.5744 -114.4400 274° West 418 481 35,600 -780 Descending Salt Lake Center
11:44PM 45.5836 -114.6264 274° West 422 486 34,500 -840 Descending Salt Lake Center
11:45PM 45.5908 -114.7872 274° West 423 487 34,000 -300 Descending Salt Lake Center
11:46PM 45.5994 -114.9722 274° West 421 484 34,000  Level Salt Lake Center
11:47PM 45.6058 -115.1258 273° West 411 473 34,000  Level Salt Lake Center
11:48PM 45.6122 -115.2825 273° West 412 474 34,000  Level Salt Lake Center
11:49PM 45.6192 -115.4653 273° West 414 476 34,000  Level Salt Lake Center
11:50PM 45.6253 -115.6228 273° West 415 478 34,000  Level Salt Lake Center
11:51PM 45.6311 -115.8058 273° West 414 476 34,000  Level Salt Lake Center
11:53PM 45.6369 -115.9653 273° West 419 482 34,000  Level Salt Lake Center
11:54PM 45.6431 -116.1536 273° West 422 486 34,000  Level Seattle Center
11:55PM 45.6492 -116.3408 273° West 423 487 34,000  Level Seattle Center
11:56PM 45.6539 -116.5017 272° West 425 489 34,000  Level Seattle Center
11:57PM 45.6578 -116.6600 272° West 421 484 34,000  Level Seattle Center
11:58PM 45.6628 -116.8467 272° West 422 486 34,000  Level Seattle Center
11:59PM 45.6664 -117.0097 272° West 427 491 34,000  Level Seattle Center
12:00AM 45.6708 -117.1703 272° West 424 488 34,000  Level Seattle Center
12:01AM 45.6750 -117.3569 272° West 421 484 34,000  Level Seattle Center
12:02AM 45.6778 -117.5178 271° West 423 487 34,000  Level Seattle Center
12:03AM 45.6803 -117.6742 271° West 416 479 34,000  Level Seattle Center
12:04AM 45.6844 -117.8433 272° West 413 475 34,000  Level Seattle Center
12:05AM 45.6869 -118.0069 271° West 412 474 34,000  Level Seattle Center
12:06AM 45.6892 -118.1722 271° West 414 476 34,000  Level Seattle Center
12:07AM 45.6917 -118.3369 271° West 415 478 34,000  Level Seattle Center
12:08AM 45.6939 -118.5017 271° West 416 479 34,000  Level Seattle Center
12:09AM 45.6950 -118.6658 271° West 414 476 34,000  Level Seattle Center
12:10AM 45.6964 -118.8308 271° West 415 478 34,000  Level Seattle Center
12:11AM 45.6928 -118.9956 268° West 416 479 34,000  Level Seattle Center
12:12AM 45.6719 -119.1611 260° West 423 487 34,000  Level Seattle Center
12:13AM 45.6547 -119.3258 262° West 422 486 34,000  Level Seattle Center
12:14AM 45.6356 -119.4906 261° West 421 484 34,000  Level Seattle Center
12:15AM 45.6136 -119.6856 261° West 416 479 34,000  Level Seattle Center
12:16AM 45.5947 -119.8464 261° West 413 475 34,000  Level Seattle Center
12:17AM 45.5742 -120.0092 260° West 415 478 34,000 -660 Level Seattle Center
12:18AM 45.5603 -120.1764 263° West 422 486 32,700 -1,620 Descending Seattle Center
12:19AM 45.5400 -120.3281 259° West 401 461 30,800 -1,800 Descending Seattle Center
12:20AM 45.5247 -120.4614 261° West 389 448 29,100 -1,740 Descending Seattle Center
12:21AM 45.5050 -120.6100 259° West 385 443 27,300 -2,040 Descending Seattle Center
12:22AM 45.4836 -120.7847 260° West 377 434 25,100 -1,980 Descending Seattle Center
12:23AM 45.4653 -120.9228 259° West 355 409 23,400 -1,680 Descending Seattle Center
12:24AM 45.4492 -121.0589 260° West 350 403 21,800 -1,680 Descending Seattle Center
12:25AM 45.4319 -121.1919 260° West 344 396 20,100 -2,040 Descending Seattle Center
12:26AM 45.4436 -121.3228 277° West 333 383 17,800 -2,460 Descending Seattle Center
12:27AM 45.4594 -121.4556 280° West 348 400 15,300 -2,100 Descending Seattle Center
12:28AM 45.4758 -121.5939 280° West 333 383 13,700 -1,740 Descending Seattle Center
12:29AM 45.4883 -121.7153 278° West 308 354 11,800 -1,620 Descending Seattle Center
12:30AM 45.5042 -121.8322 281° West 300 345 10,500 -1,440 Descending Seattle Center
12:31AM 45.4911 -121.9367 260° West 276 318 8,900 -1,680 Descending Seattle Center
12:32AM 45.4578 -122.0369 245° Southwest 280 322 7,200 -1,440 Descending Seattle Center
12:33AM 45.4256 -122.1336 245° Southwest 274 315 6,000 -840 Descending Seattle Center
12:34AM 45.4458 -122.2208 288° West 213 245 5,600 -780 Descending Seattle Center
12:35AM 45.4722 -122.2869 300° West 192 221 4,500 -840 Descending Seattle Center
12:36AM 45.4989 -122.3531 300° West 192 221 4,000 -780 Descending Seattle Center
12:37AM 45.5181 -122.4039 298° West 127 146 3,000 -1,020 Descending Seattle Center
12:38AM 45.5358 -122.4489 299° West 127 146 2,000 -840 Descending Seattle Center
12:39AM 45.5531 -122.4911 300° West 122 140 1,300 -720 Descending Seattle Center
12:40AM 45.5714 -122.5392 299° West 129 148 600 -720 Descending Seattle Center
12:42AM 45.5833 -122.5833 282° West  Level FlightAware Approximate